x

Dunkirk, Ny (dbln6) Weather Station

12:00pm - Mon 31st Aug 2015 All times are CDT. -5 hours from GMT.

  • Wind
    11mph, 15mph gusts
  • Air Temp 74°f
  • Sea Pressure 1018.2mb
  • Dunkirk, Ny
  • Dunkirk, Ny

More Historic Weather Station data

Upgrade to MSW Pro to gain access to the past 30 days of data for over 8000 Wavebouys and Weather Stations around the globe.

Join Pro

Comparision Forecast

View Surf forecast
   
Mon 08/31 12:00pm 11 15 mph 1018.2mb 74f
11:00am 13 15 mph 1018.4mb 74f
10:00am 11 14 mph 1018.6mb 74f
9:00am 14 17 mph 1017.9mb 73f
8:00am 11 14 mph 1017.9mb 73f
7:00am 7 9 mph 1017.8mb 72f
6:00am 7 10 mph 1017.2mb 71f
5:00am 7 10 mph 1016.7mb 71f
4:00am 7 10 mph 1016.8mb 71f
3:00am 6 7 mph 1016.5mb 72f
2:00am 6 8 mph 1016.5mb 72f
1:00am 7 8 mph 1016.6mb 71f
12:00am 8 9 mph 1017mb 72f
Sun 08/30 11:00pm 7 9 mph 1017.2mb 71f
10:00pm 7 9 mph 1017.1mb 72f
9:00pm 7 9 mph 1017.4mb 72f
8:00pm 5 6 mph 1017.4mb 72f
7:00pm 5
mph
1017.1mb 73f
6:00pm  -  2 mph 1017mb 75f
5:00pm 3 5 mph 1017.3mb 74f
4:00pm 3 6 mph 1017.4mb 73f
3:00pm 5 6 mph 1017.9mb 73f
2:00pm 5 7 mph 1018.5mb 73f
1:00pm 8 10 mph 1018.9mb 73f
12:00pm 8 10 mph 1019.2mb 72f
11:00am 9 10 mph 1019.5mb 72f
10:00am 7 9 mph 1019.4mb 72f
9:00am 7 10 mph 1019.2mb 71f
8:00am 3 5 mph 1019.1mb 69f
7:00am 6 7 mph 1018.8mb 67f
6:00am 6 7 mph 1018.6mb 67f
5:00am 3 5 mph 1018mb 67f
4:00am 5 7 mph 1017.7mb 67f
3:00am 5 8 mph 1017.9mb 67f
2:00am 7 8 mph 1017.8mb 68f
1:00am 7
mph
1017.9mb 67f
12:00am 5
mph
1018.6mb 68f
Sat 08/29 11:00pm  -  mph 1018.7mb 70f
10:00pm 3 5 mph 1018.7mb 70f
9:00pm 2 3 mph 1018.8mb 71f
8:00pm 5 6 mph 1018.8mb 72f
7:00pm 2
mph
1018.5mb 72f
6:00pm 3 5 mph 1018.7mb 73f
5:00pm 3
mph
1019.1mb 72f
4:00pm 5
mph
1019.2mb 72f
3:00pm 2
mph
1019.7mb 74f
2:00pm 3 5 mph 1020mb 73f
1:00pm 3 5 mph 1021mb 72f
12:00pm 3
mph
1021.5mb 72f
11:00am 5 6 mph 1022mb 72f
10:00am 5
mph
1021.9mb 70f
9:00am 3 5 mph 1021.7mb 70f
8:00am 5 7 mph 1021.7mb 65f
7:00am 8 9 mph 1021.6mb 64f
6:00am 6 7 mph 1021.3mb 63f
5:00am 6 8 mph 1020.9mb 62f
4:00am 6 8 mph 1021mb 62f
3:00am 7 8 mph 1020.9mb 63f
2:00am 6
mph
1021.2mb 64f
1:00am 1 2 mph 1021.8mb 64f
12:00am 5 6 mph 1021.6mb 62f
Fri 08/28 11:00pm 5 7 mph 1021.8mb 64f
10:00pm 7 8 mph 1022mb 63f
9:00pm 6
mph
1022.3mb 63f
8:00pm 3 5 mph 1022mb 65f
7:00pm 2
mph
1021.7mb 67f
6:00pm  -  mph 1021.9mb 68f
5:00pm 2 3 mph 1021.9mb 69f
4:00pm 2 3 mph 1021.9mb 69f
3:00pm 2 3 mph 1022.2mb 69f
2:00pm 6 8 mph 1022.9mb 68f
1:00pm 7 9 mph 1023mb 67f
12:00pm 8 10 mph 1023.2mb 67f
11:00am 9 10 mph 1023.7mb 67f
10:00am 8 10 mph 1023.5mb 66f
9:00am 6 7 mph 1023.5mb 65f
8:00am 5 7 mph 1023.6mb 61f
7:00am 8 9 mph 1023.4mb 60f
6:00am 7 9 mph 1022.8mb 58f
5:00am 8 10 mph 1022.2mb 58f
4:00am 8 10 mph 1021.5mb 59f
3:00am 7 8 mph 1021.3mb 60f
2:00am 5 7 mph 1021.3mb 62f
1:00am 5 8 mph 1021.7mb 63f
12:00am 6 8 mph 1022mb 63f
Thu 08/27 11:00pm 3 6 mph 1021.9mb 63f
10:00pm 3 5 mph 1021.9mb 63f
9:00pm 1 5 mph 1022mb 66f
8:00pm 7 9 mph 1021.7mb 66f
7:00pm 8 10 mph 1021.2mb 66f